sensor_id;sensor_type;location;lat;lon;timestamp;pressure;altitude;pressure_sealevel;temperature;humidity
26657;BME280;14279;50.010;8.260;2023-04-21T00:00:57;100182.97;;;8.81;86.27
26657;BME280;14279;50.010;8.260;2023-04-21T00:03:24;100185.34;;;8.86;85.47
26657;BME280;14279;50.010;8.260;2023-04-21T00:05:50;100191.00;;;8.96;85.36
26657;BME280;14279;50.010;8.260;2023-04-21T00:08:16;100187.69;;;8.92;85.68
26657;BME280;14279;50.010;8.260;2023-04-21T00:10:42;100187.00;;;8.89;85.48
26657;BME280;14279;50.010;8.260;2023-04-21T00:13:08;100184.44;;;8.87;85.62
26657;BME280;14279;50.010;8.260;2023-04-21T00:15:33;100177.50;;;8.87;85.89
26657;BME280;14279;50.010;8.260;2023-04-21T00:17:59;100177.63;;;8.84;85.84
26657;BME280;14279;50.010;8.260;2023-04-21T00:20:24;100181.28;;;8.80;86.12
26657;BME280;14279;50.010;8.260;2023-04-21T00:22:54;100178.78;;;8.77;86.39
26657;BME280;14279;50.010;8.260;2023-04-21T00:25:19;100173.53;;;8.79;86.09
26657;BME280;14279;50.010;8.260;2023-04-21T00:27:45;100172.94;;;8.72;86.97
26657;BME280;14279;50.010;8.260;2023-04-21T00:30:10;100174.31;;;8.81;86.41
26657;BME280;14279;50.010;8.260;2023-04-21T00:32:36;100171.41;;;8.89;85.91
26657;BME280;14279;50.010;8.260;2023-04-21T00:35:01;100167.06;;;8.89;86.19
26657;BME280;14279;50.010;8.260;2023-04-21T00:37:27;100172.31;;;8.87;85.99
26657;BME280;14279;50.010;8.260;2023-04-21T00:39:52;100169.13;;;8.81;86.33
26657;BME280;14279;50.010;8.260;2023-04-21T00:42:17;100176.13;;;8.79;86.05
26657;BME280;14279;50.010;8.260;2023-04-21T00:44:43;100164.13;;;8.76;86.20
26657;BME280;14279;50.010;8.260;2023-04-21T00:47:08;100168.16;;;8.63;86.41
26657;BME280;14279;50.010;8.260;2023-04-21T00:49:34;100166.97;;;8.70;86.34
26657;BME280;14279;50.010;8.260;2023-04-21T00:51:59;100161.97;;;8.65;86.31
26657;BME280;14279;50.010;8.260;2023-04-21T00:54:25;100161.91;;;8.67;86.47
26657;BME280;14279;50.010;8.260;2023-04-21T00:56:51;100159.50;;;8.62;86.94
26657;BME280;14279;50.010;8.260;2023-04-21T00:59:17;100158.47;;;8.66;86.56
26657;BME280;14279;50.010;8.260;2023-04-21T01:01:43;100159.13;;;8.71;86.64
26657;BME280;14279;50.010;8.260;2023-04-21T01:04:08;100162.41;;;8.77;86.14
26657;BME280;14279;50.010;8.260;2023-04-21T01:06:34;100162.41;;;8.77;85.89
26657;BME280;14279;50.010;8.260;2023-04-21T01:09:00;100157.50;;;8.69;86.37
26657;BME280;14279;50.010;8.260;2023-04-21T01:11:26;100154.06;;;8.68;86.35
26657;BME280;14279;50.010;8.260;2023-04-21T01:13:52;100156.91;;;8.62;86.45
26657;BME280;14279;50.010;8.260;2023-04-21T01:16:21;100166.34;;;8.65;86.45
26657;BME280;14279;50.010;8.260;2023-04-21T01:18:48;100161.75;;;8.71;85.88
26657;BME280;14279;50.010;8.260;2023-04-21T01:21:14;100161.28;;;8.62;85.92
26657;BME280;14279;50.010;8.260;2023-04-21T01:23:40;100158.59;;;8.63;86.42
26657;BME280;14279;50.010;8.260;2023-04-21T01:26:05;100160.41;;;8.61;86.30
26657;BME280;14279;50.010;8.260;2023-04-21T01:28:31;100156.22;;;8.59;86.50
26657;BME280;14279;50.010;8.260;2023-04-21T01:30:56;100162.09;;;8.62;86.12
26657;BME280;14279;50.010;8.260;2023-04-21T01:33:21;100159.16;;;8.49;86.65
26657;BME280;14279;50.010;8.260;2023-04-21T01:35:47;100160.41;;;8.61;86.03
26657;BME280;14279;50.010;8.260;2023-04-21T01:38:12;100166.38;;;8.63;85.69
26657;BME280;14279;50.010;8.260;2023-04-21T01:40:38;100160.66;;;8.55;86.16
26657;BME280;14279;50.010;8.260;2023-04-21T01:43:06;100167.13;;;8.45;86.12
26657;BME280;14279;50.010;8.260;2023-04-21T01:45:31;100171.31;;;8.49;86.12
26657;BME280;14279;50.010;8.260;2023-04-21T01:47:56;100165.44;;;8.43;85.90
26657;BME280;14279;50.010;8.260;2023-04-21T01:50:22;100163.81;;;8.41;85.96
26657;BME280;14279;50.010;8.260;2023-04-21T01:52:47;100162.28;;;8.35;86.63
26657;BME280;14279;50.010;8.260;2023-04-21T01:55:12;100166.53;;;8.38;86.08
26657;BME280;14279;50.010;8.260;2023-04-21T01:57:38;100174.94;;;8.43;86.33
26657;BME280;14279;50.010;8.260;2023-04-21T02:00:04;100174.00;;;8.46;85.93
26657;BME280;14279;50.010;8.260;2023-04-21T02:02:30;100167.28;;;8.62;86.03
26657;BME280;14279;50.010;8.260;2023-04-21T02:04:55;100164.44;;;8.68;85.67
26657;BME280;14279;50.010;8.260;2023-04-21T02:07:20;100169.69;;;8.67;85.58
26657;BME280;14279;50.010;8.260;2023-04-21T02:09:45;100162.69;;;8.69;85.51
26657;BME280;14279;50.010;8.260;2023-04-21T02:12:11;100159.38;;;8.65;85.20
26657;BME280;14279;50.010;8.260;2023-04-21T02:14:36;100161.97;;;8.65;85.70
26657;BME280;14279;50.010;8.260;2023-04-21T02:17:02;100163.91;;;8.60;85.69
26657;BME280;14279;50.010;8.260;2023-04-21T02:19:28;100153.41;;;8.63;85.36
26657;BME280;14279;50.010;8.260;2023-04-21T02:21:53;100158.13;;;8.76;85.31
26657;BME280;14279;50.010;8.260;2023-04-21T02:24:19;100157.97;;;8.79;84.81
26657;BME280;14279;50.010;8.260;2023-04-21T02:26:45;100164.00;;;8.79;85.00
26657;BME280;14279;50.010;8.260;2023-04-21T02:29:10;100164.09;;;8.78;84.72
26657;BME280;14279;50.010;8.260;2023-04-21T02:31:35;100163.34;;;8.74;85.42
26657;BME280;14279;50.010;8.260;2023-04-21T02:34:00;100163.09;;;8.80;85.29
26657;BME280;14279;50.010;8.260;2023-04-21T02:36:26;100163.34;;;8.74;85.05
26657;BME280;14279;50.010;8.260;2023-04-21T02:38:51;100169.28;;;8.78;85.21
26657;BME280;14279;50.010;8.260;2023-04-21T02:41:16;100177.06;;;8.78;85.28
26657;BME280;14279;50.010;8.260;2023-04-21T02:43:41;100173.59;;;8.77;85.26
26657;BME280;14279;50.010;8.260;2023-04-21T02:46:07;100166.72;;;8.76;84.88
26657;BME280;14279;50.010;8.260;2023-04-21T02:48:34;100172.03;;;8.73;85.01
26657;BME280;14279;50.010;8.260;2023-04-21T02:50:59;100168.66;;;8.71;85.50
26657;BME280;14279;50.010;8.260;2023-04-21T02:53:25;100161.53;;;8.76;85.30
26657;BME280;14279;50.010;8.260;2023-04-21T02:55:50;100171.78;;;8.79;84.89
26657;BME280;14279;50.010;8.260;2023-04-21T02:58:15;100174.38;;;8.79;84.25
26657;BME280;14279;50.010;8.260;2023-04-21T03:00:41;100162.88;;;8.64;84.58
26657;BME280;14279;50.010;8.260;2023-04-21T03:03:06;100166.97;;;8.70;85.30
26657;BME280;14279;50.010;8.260;2023-04-21T03:05:31;100171.56;;;8.63;84.93
26657;BME280;14279;50.010;8.260;2023-04-21T03:07:57;100175.31;;;8.56;85.58
26657;BME280;14279;50.010;8.260;2023-04-21T03:10:22;100177.28;;;8.51;85.73
26657;BME280;14279;50.010;8.260;2023-04-21T03:12:47;100180.59;;;8.54;85.22
26657;BME280;14279;50.010;8.260;2023-04-21T03:15:12;100177.28;;;8.51;85.57
26657;BME280;14279;50.010;8.260;2023-04-21T03:17:39;100176.31;;;8.53;85.43
26657;BME280;14279;50.010;8.260;2023-04-21T03:20:05;100183.19;;;8.54;85.25
26657;BME280;14279;50.010;8.260;2023-04-21T03:22:32;100189.19;;;8.55;84.49
26657;BME280;14279;50.010;8.260;2023-04-21T03:24:57;100185.97;;;8.50;85.36
26657;BME280;14279;50.010;8.260;2023-04-21T03:27:22;100180.81;;;8.48;85.03
26657;BME280;14279;50.010;8.260;2023-04-21T03:29:48;100186.06;;;8.47;85.29
26657;BME280;14279;50.010;8.260;2023-04-21T03:32:13;100177.41;;;8.46;85.35
26657;BME280;14279;50.010;8.260;2023-04-21T03:34:38;100185.19;;;8.46;85.34
26657;BME280;14279;50.010;8.260;2023-04-21T03:37:03;100179.91;;;8.49;85.22
26657;BME280;14279;50.010;8.260;2023-04-21T03:39:29;100181.69;;;8.49;85.67
26657;BME280;14279;50.010;8.260;2023-04-21T03:41:54;100175.69;;;8.47;85.55
26657;BME280;14279;50.010;8.260;2023-04-21T03:44:19;100183.38;;;8.50;85.53
26657;BME280;14279;50.010;8.260;2023-04-21T03:46:45;100178.28;;;8.47;85.59
26657;BME280;14279;50.010;8.260;2023-04-21T03:49:10;100182.50;;;8.49;85.08
26657;BME280;14279;50.010;8.260;2023-04-21T03:51:35;100173.91;;;8.47;84.56
26657;BME280;14279;50.010;8.260;2023-04-21T03:54:00;100174.22;;;8.39;85.10
26657;BME280;14279;50.010;8.260;2023-04-21T03:56:26;100168.75;;;8.25;85.71
26657;BME280;14279;50.010;8.260;2023-04-21T03:58:51;100172.06;;;8.28;85.51
26657;BME280;14279;50.010;8.260;2023-04-21T04:01:17;100175.31;;;8.34;85.45
26657;BME280;14279;50.010;8.260;2023-04-21T04:03:42;100169.13;;;8.38;85.68
26657;BME280;14279;50.010;8.260;2023-04-21T04:06:07;100159.09;;;8.28;85.98
26657;BME280;14279;50.010;8.260;2023-04-21T04:08:33;100162.41;;;8.32;86.46
26657;BME280;14279;50.010;8.260;2023-04-21T04:10:58;100165.06;;;8.31;86.72
26657;BME280;14279;50.010;8.260;2023-04-21T04:13:23;100168.75;;;8.25;86.57
26657;BME280;14279;50.010;8.260;2023-04-21T04:15:50;100169.66;;;8.24;87.41
26657;BME280;14279;50.010;8.260;2023-04-21T04:18:15;100170.56;;;8.23;87.28
26657;BME280;14279;50.010;8.260;2023-04-21T04:20:41;100164.59;;;8.21;87.40
26657;BME280;14279;50.010;8.260;2023-04-21T04:23:06;100163.50;;;8.26;87.34
26657;BME280;14279;50.010;8.260;2023-04-21T04:25:32;100160.13;;;8.24;87.10
26657;BME280;14279;50.010;8.260;2023-04-21T04:27:58;100156.59;;;8.27;87.32
26657;BME280;14279;50.010;8.260;2023-04-21T04:30:23;100161.94;;;8.22;86.68
26657;BME280;14279;50.010;8.260;2023-04-21T04:32:51;100157.97;;;8.13;87.51
26657;BME280;14279;50.010;8.260;2023-04-21T04:35:17;100157.97;;;8.13;87.88
26657;BME280;14279;50.010;8.260;2023-04-21T04:37:43;100158.97;;;8.09;88.88
26657;BME280;14279;50.010;8.260;2023-04-21T04:40:10;100157.28;;;8.08;88.73
26657;BME280;14279;50.010;8.260;2023-04-21T04:42:38;100155.56;;;8.09;88.06
26657;BME280;14279;50.010;8.260;2023-04-21T04:45:05;100159.59;;;8.16;87.56
26657;BME280;14279;50.010;8.260;2023-04-21T04:47:32;100164.81;;;8.15;87.26
26657;BME280;14279;50.010;8.260;2023-04-21T04:49:57;100157.78;;;8.18;86.46
26657;BME280;14279;50.010;8.260;2023-04-21T04:52:22;100165.06;;;8.08;86.90
26657;BME280;14279;50.010;8.260;2023-04-21T04:54:48;100165.84;;;8.10;86.89
26657;BME280;14279;50.010;8.260;2023-04-21T04:57:13;100170.25;;;8.08;86.72
26657;BME280;14279;50.010;8.260;2023-04-21T04:59:38;100168.81;;;8.01;87.06
26657;BME280;14279;50.010;8.260;2023-04-21T05:02:03;100166.03;;;8.06;86.54
26657;BME280;14279;50.010;8.260;2023-04-21T05:04:28;100168.63;;;8.06;86.48
26657;BME280;14279;50.010;8.260;2023-04-21T05:06:54;100171.16;;;8.07;86.68
26657;BME280;14279;50.010;8.260;2023-04-21T05:09:19;100173.69;;;8.09;86.71
26657;BME280;14279;50.010;8.260;2023-04-21T05:11:44;100173.75;;;8.07;86.44
26657;BME280;14279;50.010;8.260;2023-04-21T05:14:10;100173.41;;;8.17;86.05
26657;BME280;14279;50.010;8.260;2023-04-21T05:16:35;100176.00;;;8.17;85.85
26657;BME280;14279;50.010;8.260;2023-04-21T05:19:01;100178.78;;;8.12;85.66
26657;BME280;14279;50.010;8.260;2023-04-21T05:21:26;100176.28;;;8.09;85.54
26657;BME280;14279;50.010;8.260;2023-04-21T05:23:56;100178.78;;;8.12;85.59
26657;BME280;14279;50.010;8.260;2023-04-21T05:26:23;100172.13;;;8.05;85.95
26657;BME280;14279;50.010;8.260;2023-04-21T05:28:48;100172.31;;;8.00;85.35
26657;BME280;14279;50.010;8.260;2023-04-21T05:31:14;100168.56;;;7.85;85.79
26657;BME280;14279;50.010;8.260;2023-04-21T05:33:39;100167.34;;;7.94;85.68
26657;BME280;14279;50.010;8.260;2023-04-21T05:36:08;100176.94;;;7.92;85.27
26657;BME280;14279;50.010;8.260;2023-04-21T05:38:34;100173.47;;;8.15;84.99
26657;BME280;14279;50.010;8.260;2023-04-21T05:41:00;100174.78;;;8.25;84.41
26657;BME280;14279;50.010;8.260;2023-04-21T05:43:26;100176.81;;;8.39;83.71
26657;BME280;14279;50.010;8.260;2023-04-21T05:45:51;100191.25;;;8.47;83.05
26657;BME280;14279;50.010;8.260;2023-04-21T05:48:16;100184.16;;;8.52;82.46
26657;BME280;14279;50.010;8.260;2023-04-21T05:50:41;100179.91;;;8.49;82.40
26657;BME280;14279;50.010;8.260;2023-04-21T05:53:07;100183.19;;;8.54;82.47
26657;BME280;14279;50.010;8.260;2023-04-21T05:55:35;100175.88;;;8.42;82.35
26657;BME280;14279;50.010;8.260;2023-04-21T05:58:01;100178.97;;;8.52;82.54
26657;BME280;14279;50.010;8.260;2023-04-21T06:00:26;100168.19;;;8.61;81.85
26657;BME280;14279;50.010;8.260;2023-04-21T06:02:52;100172.44;;;8.64;81.71
26657;BME280;14279;50.010;8.260;2023-04-21T06:05:17;100176.53;;;8.69;82.08
26657;BME280;14279;50.010;8.260;2023-04-21T06:07:43;100171.09;;;8.76;81.20
26657;BME280;14279;50.010;8.260;2023-04-21T06:10:09;100175.03;;;8.84;81.49
26657;BME280;14279;50.010;8.260;2023-04-21T06:12:35;100176.53;;;8.90;81.05
26657;BME280;14279;50.010;8.260;2023-04-21T06:15:00;100174.38;;;9.00;80.77
26657;BME280;14279;50.010;8.260;2023-04-21T06:17:26;100174.25;;;9.03;80.86
26657;BME280;14279;50.010;8.260;2023-04-21T06:19:51;100162.41;;;9.16;81.12
26657;BME280;14279;50.010;8.260;2023-04-21T06:22:22;100180.22;;;9.26;81.02
26657;BME280;14279;50.010;8.260;2023-04-21T06:24:48;100179.81;;;9.35;80.76
26657;BME280;14279;50.010;8.260;2023-04-21T06:27:13;100173.06;;;9.31;83.51
26657;BME280;14279;50.010;8.260;2023-04-21T06:29:39;100182.59;;;9.30;82.46
26657;BME280;14279;50.010;8.260;2023-04-21T06:32:04;100179.22;;;9.28;82.93
26657;BME280;14279;50.010;8.260;2023-04-21T06:34:39;100189.00;;;9.23;82.53
26657;BME280;14279;50.010;8.260;2023-04-21T06:37:18;100184.72;;;9.22;82.48
26657;BME280;14279;50.010;8.260;2023-04-21T06:39:43;100185.84;;;9.36;82.47
26657;BME280;14279;50.010;8.260;2023-04-21T06:42:08;100189.09;;;9.41;83.71
26657;BME280;14279;50.010;8.260;2023-04-21T06:44:34;100196.22;;;9.36;83.36
26657;BME280;14279;50.010;8.260;2023-04-21T06:46:59;100195.72;;;9.48;82.08
26657;BME280;14279;50.010;8.260;2023-04-21T06:49:24;100201.75;;;9.48;81.56
26657;BME280;14279;50.010;8.260;2023-04-21T06:51:50;100198.31;;;9.48;82.16
26657;BME280;14279;50.010;8.260;2023-04-21T06:54:15;100203.09;;;9.57;81.26
26657;BME280;14279;50.010;8.260;2023-04-21T06:56:41;100198.13;;;9.32;81.72
26657;BME280;14279;50.010;8.260;2023-04-21T06:59:07;100198.09;;;9.53;80.80
26657;BME280;14279;50.010;8.260;2023-04-21T07:01:33;100187.25;;;9.83;79.70
26657;BME280;14279;50.010;8.260;2023-04-21T07:03:58;100197.63;;;9.83;79.76
26657;BME280;14279;50.010;8.260;2023-04-21T07:06:23;100195.09;;;10.00;78.85
26657;BME280;14279;50.010;8.260;2023-04-21T07:08:48;100196.41;;;10.09;78.45
26657;BME280;14279;50.010;8.260;2023-04-21T07:11:14;100195.84;;;10.21;77.68
26657;BME280;14279;50.010;8.260;2023-04-21T07:13:39;100199.69;;;10.32;77.80
26657;BME280;14279;50.010;8.260;2023-04-21T07:23:00;100192.84;;;10.48;78.29
26657;BME280;14279;50.010;8.260;2023-04-21T07:25:27;100183.31;;;10.49;78.80
26657;BME280;14279;50.010;8.260;2023-04-21T07:27:53;100187.66;;;10.48;79.33
26657;BME280;14279;50.010;8.260;2023-04-21T07:30:18;100186.34;;;10.40;79.23
26657;BME280;14279;50.010;8.260;2023-04-21T07:32:43;100188.13;;;10.57;78.72
26657;BME280;14279;50.010;8.260;2023-04-21T07:35:10;100185.97;;;10.47;79.51
26657;BME280;14279;50.010;8.260;2023-04-21T07:37:35;100188.13;;;10.57;79.15
26657;BME280;14279;50.010;8.260;2023-04-21T07:40:25;100185.91;;;10.66;78.96
26657;BME280;14279;50.010;8.260;2023-04-21T07:42:51;100187.31;;;10.56;79.32
26657;BME280;14279;50.010;8.260;2023-04-21T07:45:53;100189.81;;;10.58;79.55
26657;BME280;14279;50.010;8.260;2023-04-21T07:48:51;100188.13;;;10.74;79.46
26657;BME280;14279;50.010;8.260;2023-04-21T07:51:17;100184.31;;;10.64;79.87
26657;BME280;14279;50.010;8.260;2023-04-21T07:53:50;100196.13;;;10.71;79.20
26657;BME280;14279;50.010;8.260;2023-04-21T07:56:21;100192.81;;;10.67;79.07
26657;BME280;14279;50.010;8.260;2023-04-21T07:58:49;100189.13;;;10.72;79.10
26657;BME280;14279;50.010;8.260;2023-04-21T08:01:15;100193.28;;;10.58;79.54
26657;BME280;14279;50.010;8.260;2023-04-21T08:03:40;100193.53;;;10.71;79.64
26657;BME280;14279;50.010;8.260;2023-04-21T08:06:06;100195.13;;;10.37;80.73
26657;BME280;14279;50.010;8.260;2023-04-21T08:08:31;100176.25;;;10.51;80.83
26657;BME280;14279;50.010;8.260;2023-04-21T08:10:56;100165.00;;;10.50;81.40
26657;BME280;14279;50.010;8.260;2023-04-21T08:13:21;100170.91;;;10.72;80.39
26657;BME280;14279;50.010;8.260;2023-04-21T08:15:50;100173.59;;;10.88;79.33
26657;BME280;14279;50.010;8.260;2023-04-21T08:18:15;100179.84;;;11.01;78.62
26657;BME280;14279;50.010;8.260;2023-04-21T08:20:43;100186.28;;;11.11;78.56
26657;BME280;14279;50.010;8.260;2023-04-21T08:23:08;100190.22;;;11.36;77.64
26657;BME280;14279;50.010;8.260;2023-04-21T08:25:33;100186.91;;;11.33;78.48
26657;BME280;14279;50.010;8.260;2023-04-21T08:27:58;100186.88;;;11.34;78.30
26657;BME280;14279;50.010;8.260;2023-04-21T08:30:25;100185.69;;;11.40;78.30
26657;BME280;14279;50.010;8.260;2023-04-21T08:32:51;100188.13;;;11.43;78.67
26657;BME280;14279;50.010;8.260;2023-04-21T08:35:16;100187.75;;;11.67;77.29
26657;BME280;14279;50.010;8.260;2023-04-21T08:37:41;100180.19;;;11.62;77.08
26657;BME280;14279;50.010;8.260;2023-04-21T08:40:07;100180.38;;;11.75;76.15
26657;BME280;14279;50.010;8.260;2023-04-21T08:42:33;100182.03;;;11.92;75.74
26657;BME280;14279;50.010;8.260;2023-04-21T08:44:59;100186.78;;;12.33;73.92
26657;BME280;14279;50.010;8.260;2023-04-21T08:47:25;100182.00;;;12.26;74.74
26657;BME280;14279;50.010;8.260;2023-04-21T08:49:51;100173.50;;;12.06;75.54
26657;BME280;14279;50.010;8.260;2023-04-21T08:52:18;100175.25;;;11.90;76.43
26657;BME280;14279;50.010;8.260;2023-04-21T08:54:43;100177.25;;;11.84;76.65
26657;BME280;14279;50.010;8.260;2023-04-21T08:57:08;100170.34;;;11.83;76.12
26657;BME280;14279;50.010;8.260;2023-04-21T08:59:34;100168.50;;;11.69;77.43
26657;BME280;14279;50.010;8.260;2023-04-21T09:02:13;100161.22;;;12.08;76.42
26657;BME280;14279;50.010;8.260;2023-04-21T09:04:41;100158.69;;;12.07;75.50
26657;BME280;14279;50.010;8.260;2023-04-21T09:07:07;100155.22;;;12.22;75.34
26657;BME280;14279;50.010;8.260;2023-04-21T09:09:50;100160.81;;;12.46;74.53
26657;BME280;14279;50.010;8.260;2023-04-21T09:12:16;100157.63;;;12.41;74.88
26657;BME280;14279;50.010;8.260;2023-04-21T09:14:51;100155.50;;;12.48;74.76
26657;BME280;14279;50.010;8.260;2023-04-21T09:17:29;100148.47;;;12.34;75.04
26657;BME280;14279;50.010;8.260;2023-04-21T09:19:57;100152.16;;;12.30;74.57
26657;BME280;14279;50.010;8.260;2023-04-21T09:22:26;100145.53;;;12.24;75.57
26657;BME280;14279;50.010;8.260;2023-04-21T09:24:57;100144.78;;;12.53;74.39
26657;BME280;14279;50.010;8.260;2023-04-21T09:27:23;100144.44;;;12.59;73.70
26657;BME280;14279;50.010;8.260;2023-04-21T09:29:49;100145.28;;;12.59;73.51
26657;BME280;14279;50.010;8.260;2023-04-21T09:32:19;100145.66;;;12.98;72.14
26657;BME280;14279;50.010;8.260;2023-04-21T09:34:45;100146.13;;;13.05;71.23
26657;BME280;14279;50.010;8.260;2023-04-21T09:37:11;100134.25;;;13.28;71.49
26657;BME280;14279;50.010;8.260;2023-04-21T09:39:38;100136.41;;;13.21;70.98
26657;BME280;14279;50.010;8.260;2023-04-21T09:42:03;100136.06;;;13.57;70.31
26657;BME280;14279;50.010;8.260;2023-04-21T09:44:29;100138.94;;;13.37;70.80
26657;BME280;14279;50.010;8.260;2023-04-21T09:47:00;100135.59;;;13.21;70.81
26657;BME280;14279;50.010;8.260;2023-04-21T09:49:29;100136.59;;;13.18;71.02
26657;BME280;14279;50.010;8.260;2023-04-21T09:51:56;100136.34;;;13.23;70.93
26657;BME280;14279;50.010;8.260;2023-04-21T09:54:29;100131.63;;;12.85;72.33
26657;BME280;14279;50.010;8.260;2023-04-21T09:56:55;100136.97;;;13.27;71.42
26657;BME280;14279;50.010;8.260;2023-04-21T09:59:25;100126.66;;;13.81;70.52
26657;BME280;14279;50.010;8.260;2023-04-21T10:01:53;100118.69;;;14.10;68.68
26657;BME280;14279;50.010;8.260;2023-04-21T10:04:19;100121.34;;;14.23;67.56
26657;BME280;14279;50.010;8.260;2023-04-21T10:06:46;100115.56;;;14.05;67.78
26657;BME280;14279;50.010;8.260;2023-04-21T10:09:13;100116.03;;;13.97;68.11
26657;BME280;14279;50.010;8.260;2023-04-21T10:11:40;100110.59;;;14.28;68.15
26657;BME280;14279;50.010;8.260;2023-04-21T10:14:07;100114.72;;;14.58;66.26
26657;BME280;14279;50.010;8.260;2023-04-21T10:16:35;100109.66;;;14.29;66.00
26657;BME280;14279;50.010;8.260;2023-04-21T10:19:00;100106.25;;;14.67;64.23
26657;BME280;14279;50.010;8.260;2023-04-21T10:21:26;100102.22;;;14.36;66.28
26657;BME280;14279;50.010;8.260;2023-04-21T10:23:52;100104.59;;;15.18;63.49
26657;BME280;14279;50.010;8.260;2023-04-21T10:26:23;100107.25;;;15.42;62.95
26657;BME280;14279;50.010;8.260;2023-04-21T10:28:57;100109.44;;;15.61;62.71
26657;BME280;14279;50.010;8.260;2023-04-21T10:31:39;100111.25;;;14.04;65.46
26657;BME280;14279;50.010;8.260;2023-04-21T10:34:13;100106.53;;;14.09;66.07
26657;BME280;14279;50.010;8.260;2023-04-21T10:42:17;100104.28;;;14.97;62.10
26657;BME280;14279;50.010;8.260;2023-04-21T10:47:37;100092.56;;;15.53;60.56
26657;BME280;14279;50.010;8.260;2023-04-21T10:50:22;100080.66;;;16.33;57.98
26657;BME280;14279;50.010;8.260;2023-04-21T10:55:24;100095.38;;;15.62;61.36
26657;BME280;14279;50.010;8.260;2023-04-21T10:57:51;100086.16;;;14.68;65.02
26657;BME280;14279;50.010;8.260;2023-04-21T11:00:19;100086.34;;;14.52;66.47
26657;BME280;14279;50.010;8.260;2023-04-21T11:02:58;100084.00;;;14.47;67.20
26657;BME280;14279;50.010;8.260;2023-04-21T11:05:33;100075.19;;;14.35;66.46
26657;BME280;14279;50.010;8.260;2023-04-21T11:08:11;100070.16;;;13.92;67.46
26657;BME280;14279;50.010;8.260;2023-04-21T11:10:56;100063.88;;;13.81;68.33
26657;BME280;14279;50.010;8.260;2023-04-21T11:13:23;100065.56;;;14.36;67.11
26657;BME280;14279;50.010;8.260;2023-04-21T11:16:05;100057.00;;;14.47;66.71
26657;BME280;14279;50.010;8.260;2023-04-21T11:18:38;100062.75;;;13.98;67.46
26657;BME280;14279;50.010;8.260;2023-04-21T11:21:08;100065.88;;;13.91;68.08
26657;BME280;14279;50.010;8.260;2023-04-21T11:23:34;100059.66;;;14.06;67.03
26657;BME280;14279;50.010;8.260;2023-04-21T11:26:00;100055.38;;;14.05;66.88
26657;BME280;14279;50.010;8.260;2023-04-21T11:28:25;100056.78;;;13.96;66.97
26657;BME280;14279;50.010;8.260;2023-04-21T11:30:50;100052.81;;;14.04;67.13
26657;BME280;14279;50.010;8.260;2023-04-21T11:33:16;100056.59;;;14.00;67.76
26657;BME280;14279;50.010;8.260;2023-04-21T11:35:42;100046.22;;;13.98;67.36
26657;BME280;14279;50.010;8.260;2023-04-21T11:38:07;100052.19;;;14.53;65.58
26657;BME280;14279;50.010;8.260;2023-04-21T11:40:48;100043.50;;;14.92;64.07
26657;BME280;14279;50.010;8.260;2023-04-21T11:43:13;100044.13;;;14.56;63.68
26657;BME280;14279;50.010;8.260;2023-04-21T11:45:39;100038.34;;;14.38;64.25
26657;BME280;14279;50.010;8.260;2023-04-21T11:48:15;100034.72;;;14.80;63.63
26657;BME280;14279;50.010;8.260;2023-04-21T11:50:47;100034.47;;;14.31;64.79
26657;BME280;14279;50.010;8.260;2023-04-21T11:53:15;100024.72;;;14.85;64.04
26657;BME280;14279;50.010;8.260;2023-04-21T11:55:41;100031.50;;;15.75;61.17
26657;BME280;14279;50.010;8.260;2023-04-21T11:58:07;100028.47;;;15.68;60.76
26657;BME280;14279;50.010;8.260;2023-04-21T12:00:33;100022.25;;;15.58;61.18
26657;BME280;14279;50.010;8.260;2023-04-21T12:02:58;100032.78;;;15.69;61.40
26657;BME280;14279;50.010;8.260;2023-04-21T12:05:23;100025.56;;;15.84;61.06
26657;BME280;14279;50.010;8.260;2023-04-21T12:07:48;100018.13;;;15.78;61.54
26657;BME280;14279;50.010;8.260;2023-04-21T12:10:17;100018.47;;;15.25;62.01
26657;BME280;14279;50.010;8.260;2023-04-21T12:12:43;100015.91;;;14.99;62.48
26657;BME280;14279;50.010;8.260;2023-04-21T12:15:11;100007.00;;;15.87;60.11
26657;BME280;14279;50.010;8.260;2023-04-21T12:17:44;100003.19;;;16.27;59.80
26657;BME280;14279;50.010;8.260;2023-04-21T12:20:10;100004.31;;;16.70;57.92
26657;BME280;14279;50.010;8.260;2023-04-21T12:22:36;100012.00;;;16.37;58.44
26657;BME280;14279;50.010;8.260;2023-04-21T12:25:02;100002.34;;;15.91;59.26
26657;BME280;14279;50.010;8.260;2023-04-21T12:27:27;100006.06;;;15.64;60.29
26657;BME280;14279;50.010;8.260;2023-04-21T12:29:52;100009.19;;;16.52;59.38
26657;BME280;14279;50.010;8.260;2023-04-21T12:32:18;100013.09;;;16.35;59.91
26657;BME280;14279;50.010;8.260;2023-04-21T12:34:43;100004.63;;;17.22;58.19
26657;BME280;14279;50.010;8.260;2023-04-21T12:37:08;99996.53;;;17.58;56.75
26657;BME280;14279;50.010;8.260;2023-04-21T12:39:33;99997.53;;;17.78;56.39
26657;BME280;14279;50.010;8.260;2023-04-21T12:41:59;99996.09;;;18.07;54.77
26657;BME280;14279;50.010;8.260;2023-04-21T12:44:25;99993.66;;;17.82;55.58
26657;BME280;14279;50.010;8.260;2023-04-21T12:46:51;99994.50;;;17.83;54.63
26657;BME280;14279;50.010;8.260;2023-04-21T12:49:17;100002.41;;;16.72;57.05
26657;BME280;14279;50.010;8.260;2023-04-21T12:51:42;100000.00;;;16.46;58.18
26657;BME280;14279;50.010;8.260;2023-04-21T12:54:09;99989.22;;;16.83;57.62
26657;BME280;14279;50.010;8.260;2023-04-21T12:56:34;99984.88;;;17.39;56.63
26657;BME280;14279;50.010;8.260;2023-04-21T12:59:00;99976.41;;;17.68;55.41
26657;BME280;14279;50.010;8.260;2023-04-21T13:01:25;99987.19;;;16.30;59.37
26657;BME280;14279;50.010;8.260;2023-04-21T13:03:51;99983.63;;;16.31;59.67
26657;BME280;14279;50.010;8.260;2023-04-21T13:06:16;99986.53;;;16.04;60.76
26657;BME280;14279;50.010;8.260;2023-04-21T13:08:41;99981.75;;;15.98;60.08
26657;BME280;14279;50.010;8.260;2023-04-21T13:11:07;99978.34;;;16.43;59.13